Sharon Springs, Kansas
Current Conditions -  °F | °C
As of 2:53 PM on Monday 22 Dec 2014 (Local Time) from KGLD Reporting Station
Clear Clear  
Wind Chill: 34°   Ceiling: Unl
Heat Index: 43°   Visibility: 10mi
Dew Point: 23°   Wind: 21mph
Humidity: 45%   Direction: 330°NNW
Pressure: 29.64"   Gusts: NA
Location:  38.9°N, 101.75°W
Report Text: KGLD 222153Z AUTO 33018KT 10SM CLR 06/M05 A2964 RMK AO2 PK WND 33032/2130 SLP039 T00611050
Loading
Personal Weather Stations






























Interactive Weather Map New forecast layout! Learn more

10-Day Weather Forecast

Advertisements
Track Severe Weather on mobile